sensor_id;sensor_type;location;lat;lon;timestamp;P1;durP1;ratioP1;P2;durP2;ratioP2
9914;SDS011;4996;48.746;9.174;2023-12-07T00:01:48;8.77;;;5.87;;
9914;SDS011;4996;48.746;9.174;2023-12-07T00:04:14;14.83;;;7.00;;
9914;SDS011;4996;48.746;9.174;2023-12-07T00:06:39;8.77;;;5.90;;
9914;SDS011;4996;48.746;9.174;2023-12-07T00:09:05;8.17;;;6.20;;
9914;SDS011;4996;48.746;9.174;2023-12-07T00:11:30;8.37;;;6.20;;
9914;SDS011;4996;48.746;9.174;2023-12-07T00:13:56;12.00;;;6.33;;
9914;SDS011;4996;48.746;9.174;2023-12-07T00:16:21;11.80;;;5.73;;
9914;SDS011;4996;48.746;9.174;2023-12-07T00:18:47;12.13;;;6.67;;
9914;SDS011;4996;48.746;9.174;2023-12-07T00:21:12;10.73;;;6.80;;
9914;SDS011;4996;48.746;9.174;2023-12-07T00:23:38;8.97;;;5.60;;
9914;SDS011;4996;48.746;9.174;2023-12-07T00:26:04;11.87;;;5.87;;
9914;SDS011;4996;48.746;9.174;2023-12-07T00:28:29;11.13;;;6.30;;
9914;SDS011;4996;48.746;9.174;2023-12-07T00:30:55;8.40;;;5.67;;
9914;SDS011;4996;48.746;9.174;2023-12-07T00:33:21;12.03;;;6.70;;
9914;SDS011;4996;48.746;9.174;2023-12-07T00:35:47;8.97;;;4.97;;
9914;SDS011;4996;48.746;9.174;2023-12-07T00:38:12;7.10;;;4.77;;
9914;SDS011;4996;48.746;9.174;2023-12-07T00:40:38;9.83;;;5.77;;
9914;SDS011;4996;48.746;9.174;2023-12-07T00:43:05;10.77;;;5.68;;
9914;SDS011;4996;48.746;9.174;2023-12-07T00:45:31;7.20;;;4.85;;
9914;SDS011;4996;48.746;9.174;2023-12-07T00:47:56;9.33;;;5.43;;
9914;SDS011;4996;48.746;9.174;2023-12-07T00:50:22;10.00;;;5.23;;
9914;SDS011;4996;48.746;9.174;2023-12-07T00:52:47;5.97;;;4.23;;
9914;SDS011;4996;48.746;9.174;2023-12-07T00:55:13;5.83;;;5.00;;
9914;SDS011;4996;48.746;9.174;2023-12-07T00:57:39;8.27;;;4.93;;
9914;SDS011;4996;48.746;9.174;2023-12-07T01:00:05;6.43;;;5.07;;
9914;SDS011;4996;48.746;9.174;2023-12-07T01:02:31;8.88;;;4.88;;
9914;SDS011;4996;48.746;9.174;2023-12-07T01:04:57;8.37;;;5.70;;
9914;SDS011;4996;48.746;9.174;2023-12-07T01:07:23;6.50;;;4.80;;
9914;SDS011;4996;48.746;9.174;2023-12-07T01:09:48;9.60;;;5.30;;
9914;SDS011;4996;48.746;9.174;2023-12-07T01:12:14;9.15;;;5.68;;
9914;SDS011;4996;48.746;9.174;2023-12-07T01:14:40;6.67;;;4.80;;
9914;SDS011;4996;48.746;9.174;2023-12-07T01:17:06;8.43;;;4.97;;
9914;SDS011;4996;48.746;9.174;2023-12-07T01:19:31;8.30;;;4.33;;
9914;SDS011;4996;48.746;9.174;2023-12-07T01:21:57;8.63;;;5.50;;
9914;SDS011;4996;48.746;9.174;2023-12-07T01:24:22;12.20;;;5.97;;
9914;SDS011;4996;48.746;9.174;2023-12-07T01:26:48;10.30;;;5.30;;
9914;SDS011;4996;48.746;9.174;2023-12-07T01:29:13;8.47;;;5.60;;
9914;SDS011;4996;48.746;9.174;2023-12-07T01:31:39;7.87;;;5.00;;
9914;SDS011;4996;48.746;9.174;2023-12-07T01:34:05;7.93;;;5.07;;
9914;SDS011;4996;48.746;9.174;2023-12-07T01:36:31;5.67;;;4.00;;
9914;SDS011;4996;48.746;9.174;2023-12-07T01:38:56;9.10;;;4.90;;
9914;SDS011;4996;48.746;9.174;2023-12-07T01:41:22;10.87;;;5.50;;
9914;SDS011;4996;48.746;9.174;2023-12-07T01:43:48;11.43;;;5.20;;
9914;SDS011;4996;48.746;9.174;2023-12-07T01:46:14;9.10;;;5.30;;
9914;SDS011;4996;48.746;9.174;2023-12-07T01:48:40;6.82;;;4.70;;
9914;SDS011;4996;48.746;9.174;2023-12-07T01:51:06;6.80;;;4.53;;
9914;SDS011;4996;48.746;9.174;2023-12-07T01:53:32;7.07;;;5.38;;
9914;SDS011;4996;48.746;9.174;2023-12-07T01:55:58;9.52;;;4.88;;
9914;SDS011;4996;48.746;9.174;2023-12-07T01:58:24;6.20;;;4.23;;
9914;SDS011;4996;48.746;9.174;2023-12-07T02:00:50;6.50;;;4.47;;
9914;SDS011;4996;48.746;9.174;2023-12-07T02:03:16;6.13;;;5.00;;
9914;SDS011;4996;48.746;9.174;2023-12-07T02:05:43;7.15;;;4.70;;
9914;SDS011;4996;48.746;9.174;2023-12-07T02:08:13;10.13;;;5.47;;
9914;SDS011;4996;48.746;9.174;2023-12-07T02:10:39;10.50;;;5.33;;
9914;SDS011;4996;48.746;9.174;2023-12-07T02:13:05;8.50;;;5.90;;
9914;SDS011;4996;48.746;9.174;2023-12-07T02:15:31;11.35;;;5.57;;
9914;SDS011;4996;48.746;9.174;2023-12-07T02:23:51;7.85;;;5.05;;
9914;SDS011;4996;48.746;9.174;2023-12-07T02:26:20;7.82;;;4.50;;
9914;SDS011;4996;48.746;9.174;2023-12-07T02:28:47;11.00;;;4.93;;
9914;SDS011;4996;48.746;9.174;2023-12-07T02:31:13;5.80;;;3.93;;
9914;SDS011;4996;48.746;9.174;2023-12-07T02:33:38;11.00;;;4.90;;
9914;SDS011;4996;48.746;9.174;2023-12-07T02:36:04;10.53;;;4.53;;
9914;SDS011;4996;48.746;9.174;2023-12-07T02:38:30;8.13;;;4.90;;
9914;SDS011;4996;48.746;9.174;2023-12-07T02:40:56;8.83;;;5.93;;
9914;SDS011;4996;48.746;9.174;2023-12-07T02:43:23;8.32;;;4.43;;
9914;SDS011;4996;48.746;9.174;2023-12-07T02:45:49;9.20;;;5.70;;
9914;SDS011;4996;48.746;9.174;2023-12-07T02:48:15;7.87;;;4.87;;
9914;SDS011;4996;48.746;9.174;2023-12-07T02:50:42;7.40;;;4.75;;
9914;SDS011;4996;48.746;9.174;2023-12-07T02:53:08;7.23;;;5.13;;
9914;SDS011;4996;48.746;9.174;2023-12-07T02:55:33;6.60;;;4.50;;
9914;SDS011;4996;48.746;9.174;2023-12-07T02:57:59;10.10;;;5.97;;
9914;SDS011;4996;48.746;9.174;2023-12-07T03:00:24;6.67;;;4.83;;
9914;SDS011;4996;48.746;9.174;2023-12-07T03:02:50;7.33;;;4.57;;
9914;SDS011;4996;48.746;9.174;2023-12-07T03:08:15;6.75;;;4.40;;
9914;SDS011;4996;48.746;9.174;2023-12-07T03:10:41;7.63;;;4.37;;
9914;SDS011;4996;48.746;9.174;2023-12-07T03:13:06;8.70;;;5.87;;
9914;SDS011;4996;48.746;9.174;2023-12-07T03:15:32;5.60;;;4.57;;
9914;SDS011;4996;48.746;9.174;2023-12-07T03:17:58;12.87;;;5.17;;
9914;SDS011;4996;48.746;9.174;2023-12-07T03:20:23;7.40;;;5.50;;
9914;SDS011;4996;48.746;9.174;2023-12-07T03:22:49;7.70;;;5.97;;
9914;SDS011;4996;48.746;9.174;2023-12-07T03:25:14;8.37;;;5.37;;
9914;SDS011;4996;48.746;9.174;2023-12-07T03:27:40;9.57;;;5.80;;
9914;SDS011;4996;48.746;9.174;2023-12-07T03:30:05;9.73;;;5.33;;
9914;SDS011;4996;48.746;9.174;2023-12-07T03:32:32;11.20;;;5.15;;
9914;SDS011;4996;48.746;9.174;2023-12-07T03:34:57;7.57;;;4.63;;
9914;SDS011;4996;48.746;9.174;2023-12-07T03:37:23;13.43;;;5.80;;
9914;SDS011;4996;48.746;9.174;2023-12-07T03:39:48;8.03;;;4.90;;
9914;SDS011;4996;48.746;9.174;2023-12-07T03:42:14;10.83;;;5.40;;
9914;SDS011;4996;48.746;9.174;2023-12-07T03:44:39;7.87;;;4.30;;
9914;SDS011;4996;48.746;9.174;2023-12-07T03:47:05;6.80;;;4.93;;
9914;SDS011;4996;48.746;9.174;2023-12-07T03:49:30;9.70;;;5.30;;
9914;SDS011;4996;48.746;9.174;2023-12-07T03:51:56;8.90;;;5.50;;
9914;SDS011;4996;48.746;9.174;2023-12-07T03:54:21;7.60;;;4.80;;
9914;SDS011;4996;48.746;9.174;2023-12-07T03:56:47;12.43;;;6.27;;
9914;SDS011;4996;48.746;9.174;2023-12-07T03:59:12;9.47;;;6.03;;
9914;SDS011;4996;48.746;9.174;2023-12-07T04:01:38;7.30;;;4.10;;
9914;SDS011;4996;48.746;9.174;2023-12-07T04:04:03;9.07;;;5.30;;
9914;SDS011;4996;48.746;9.174;2023-12-07T04:06:30;13.63;;;4.70;;
9914;SDS011;4996;48.746;9.174;2023-12-07T04:08:55;7.67;;;4.70;;
9914;SDS011;4996;48.746;9.174;2023-12-07T04:11:21;10.77;;;6.10;;
9914;SDS011;4996;48.746;9.174;2023-12-07T04:13:47;6.35;;;4.82;;
9914;SDS011;4996;48.746;9.174;2023-12-07T04:16:12;8.10;;;5.33;;
9914;SDS011;4996;48.746;9.174;2023-12-07T04:18:38;9.17;;;5.73;;
9914;SDS011;4996;48.746;9.174;2023-12-07T04:21:04;11.43;;;5.67;;
9914;SDS011;4996;48.746;9.174;2023-12-07T04:23:30;7.75;;;5.93;;
9914;SDS011;4996;48.746;9.174;2023-12-07T04:25:56;6.97;;;5.00;;
9914;SDS011;4996;48.746;9.174;2023-12-07T04:28:22;8.73;;;5.23;;
9914;SDS011;4996;48.746;9.174;2023-12-07T04:30:47;7.90;;;5.23;;
9914;SDS011;4996;48.746;9.174;2023-12-07T04:33:13;9.00;;;5.70;;
9914;SDS011;4996;48.746;9.174;2023-12-07T04:35:38;9.27;;;6.23;;
9914;SDS011;4996;48.746;9.174;2023-12-07T04:38:04;11.10;;;5.30;;
9914;SDS011;4996;48.746;9.174;2023-12-07T04:40:29;9.47;;;5.60;;
9914;SDS011;4996;48.746;9.174;2023-12-07T04:42:55;8.37;;;6.30;;
9914;SDS011;4996;48.746;9.174;2023-12-07T04:45:20;10.47;;;5.30;;
9914;SDS011;4996;48.746;9.174;2023-12-07T04:47:46;7.90;;;5.27;;
9914;SDS011;4996;48.746;9.174;2023-12-07T04:50:12;10.43;;;6.37;;
9914;SDS011;4996;48.746;9.174;2023-12-07T04:52:37;9.60;;;6.87;;
9914;SDS011;4996;48.746;9.174;2023-12-07T04:55:04;8.60;;;6.03;;
9914;SDS011;4996;48.746;9.174;2023-12-07T04:57:36;8.40;;;6.03;;
9914;SDS011;4996;48.746;9.174;2023-12-07T05:00:04;9.02;;;6.13;;
9914;SDS011;4996;48.746;9.174;2023-12-07T05:02:35;9.57;;;5.65;;
9914;SDS011;4996;48.746;9.174;2023-12-07T05:05:01;10.50;;;5.55;;
9914;SDS011;4996;48.746;9.174;2023-12-07T05:07:27;11.13;;;5.50;;
9914;SDS011;4996;48.746;9.174;2023-12-07T05:09:52;9.43;;;5.60;;
9914;SDS011;4996;48.746;9.174;2023-12-07T05:12:18;10.33;;;4.77;;
9914;SDS011;4996;48.746;9.174;2023-12-07T05:14:43;11.60;;;6.07;;
9914;SDS011;4996;48.746;9.174;2023-12-07T05:17:09;9.20;;;6.50;;
9914;SDS011;4996;48.746;9.174;2023-12-07T05:19:34;9.17;;;6.20;;
9914;SDS011;4996;48.746;9.174;2023-12-07T05:22:00;6.40;;;5.10;;
9914;SDS011;4996;48.746;9.174;2023-12-07T05:24:25;11.83;;;6.30;;
9914;SDS011;4996;48.746;9.174;2023-12-07T05:26:52;8.70;;;5.90;;
9914;SDS011;4996;48.746;9.174;2023-12-07T05:29:17;8.30;;;5.87;;
9914;SDS011;4996;48.746;9.174;2023-12-07T05:31:44;13.13;;;7.53;;
9914;SDS011;4996;48.746;9.174;2023-12-07T05:34:09;6.13;;;4.80;;
9914;SDS011;4996;48.746;9.174;2023-12-07T05:36:35;8.10;;;5.57;;
9914;SDS011;4996;48.746;9.174;2023-12-07T05:39:00;11.17;;;7.13;;
9914;SDS011;4996;48.746;9.174;2023-12-07T05:41:26;7.90;;;6.20;;
9914;SDS011;4996;48.746;9.174;2023-12-07T05:43:52;10.33;;;6.87;;
9914;SDS011;4996;48.746;9.174;2023-12-07T05:46:18;7.67;;;5.17;;
9914;SDS011;4996;48.746;9.174;2023-12-07T05:48:44;12.68;;;7.60;;
9914;SDS011;4996;48.746;9.174;2023-12-07T05:51:13;10.93;;;6.17;;
9914;SDS011;4996;48.746;9.174;2023-12-07T05:53:39;8.70;;;5.78;;
9914;SDS011;4996;48.746;9.174;2023-12-07T05:56:05;11.10;;;6.05;;
9914;SDS011;4996;48.746;9.174;2023-12-07T05:58:31;7.53;;;5.27;;
9914;SDS011;4996;48.746;9.174;2023-12-07T06:00:57;9.17;;;6.17;;
9914;SDS011;4996;48.746;9.174;2023-12-07T06:03:23;8.00;;;6.50;;
9914;SDS011;4996;48.746;9.174;2023-12-07T06:05:50;8.85;;;5.93;;
9914;SDS011;4996;48.746;9.174;2023-12-07T06:08:16;12.67;;;6.97;;
9914;SDS011;4996;48.746;9.174;2023-12-07T06:10:42;10.33;;;6.20;;
9914;SDS011;4996;48.746;9.174;2023-12-07T06:13:07;10.10;;;6.97;;
9914;SDS011;4996;48.746;9.174;2023-12-07T06:15:33;8.03;;;5.70;;
9914;SDS011;4996;48.746;9.174;2023-12-07T06:17:59;10.52;;;6.82;;
9914;SDS011;4996;48.746;9.174;2023-12-07T06:20:24;12.80;;;6.13;;
9914;SDS011;4996;48.746;9.174;2023-12-07T06:22:50;8.43;;;5.87;;
9914;SDS011;4996;48.746;9.174;2023-12-07T06:25:15;9.20;;;6.17;;
9914;SDS011;4996;48.746;9.174;2023-12-07T06:27:41;10.03;;;6.83;;
9914;SDS011;4996;48.746;9.174;2023-12-07T06:30:07;10.27;;;7.17;;
9914;SDS011;4996;48.746;9.174;2023-12-07T06:32:33;10.57;;;6.50;;
9914;SDS011;4996;48.746;9.174;2023-12-07T06:34:59;9.57;;;4.95;;
9914;SDS011;4996;48.746;9.174;2023-12-07T06:37:25;12.23;;;6.72;;
9914;SDS011;4996;48.746;9.174;2023-12-07T06:39:51;9.93;;;7.73;;
9914;SDS011;4996;48.746;9.174;2023-12-07T06:42:16;8.00;;;5.27;;
9914;SDS011;4996;48.746;9.174;2023-12-07T06:44:48;11.40;;;7.07;;
9914;SDS011;4996;48.746;9.174;2023-12-07T06:47:16;14.13;;;7.63;;
9914;SDS011;4996;48.746;9.174;2023-12-07T06:49:43;9.18;;;5.97;;
9914;SDS011;4996;48.746;9.174;2023-12-07T06:52:09;12.27;;;8.00;;
9914;SDS011;4996;48.746;9.174;2023-12-07T06:54:36;7.70;;;5.70;;
9914;SDS011;4996;48.746;9.174;2023-12-07T06:57:01;10.67;;;6.67;;
9914;SDS011;4996;48.746;9.174;2023-12-07T06:59:27;13.10;;;6.60;;
9914;SDS011;4996;48.746;9.174;2023-12-07T07:01:53;10.40;;;5.90;;
9914;SDS011;4996;48.746;9.174;2023-12-07T07:04:19;10.27;;;6.27;;
9914;SDS011;4996;48.746;9.174;2023-12-07T07:06:44;11.67;;;6.60;;
9914;SDS011;4996;48.746;9.174;2023-12-07T07:09:10;11.87;;;7.47;;
9914;SDS011;4996;48.746;9.174;2023-12-07T07:11:37;11.52;;;6.78;;
9914;SDS011;4996;48.746;9.174;2023-12-07T07:14:03;9.53;;;7.20;;
9914;SDS011;4996;48.746;9.174;2023-12-07T07:16:28;15.83;;;8.67;;
9914;SDS011;4996;48.746;9.174;2023-12-07T07:18:55;14.13;;;8.63;;
9914;SDS011;4996;48.746;9.174;2023-12-07T07:21:20;19.63;;;7.30;;
9914;SDS011;4996;48.746;9.174;2023-12-07T07:23:46;12.93;;;7.57;;
9914;SDS011;4996;48.746;9.174;2023-12-07T07:26:11;10.00;;;6.00;;
9914;SDS011;4996;48.746;9.174;2023-12-07T07:28:41;11.68;;;8.05;;
9914;SDS011;4996;48.746;9.174;2023-12-07T07:31:09;10.70;;;6.43;;
9914;SDS011;4996;48.746;9.174;2023-12-07T07:33:35;12.37;;;7.77;;
9914;SDS011;4996;48.746;9.174;2023-12-07T07:36:00;12.40;;;7.73;;
9914;SDS011;4996;48.746;9.174;2023-12-07T07:38:26;11.70;;;8.20;;
9914;SDS011;4996;48.746;9.174;2023-12-07T07:40:52;12.50;;;7.10;;
9914;SDS011;4996;48.746;9.174;2023-12-07T07:43:17;16.60;;;6.33;;
9914;SDS011;4996;48.746;9.174;2023-12-07T07:45:43;12.30;;;6.90;;
9914;SDS011;4996;48.746;9.174;2023-12-07T07:48:09;16.53;;;7.53;;
9914;SDS011;4996;48.746;9.174;2023-12-07T07:50:34;15.30;;;8.67;;
9914;SDS011;4996;48.746;9.174;2023-12-07T07:53:01;12.48;;;7.38;;
9914;SDS011;4996;48.746;9.174;2023-12-07T07:55:27;13.93;;;7.87;;
9914;SDS011;4996;48.746;9.174;2023-12-07T07:57:52;9.23;;;6.60;;
9914;SDS011;4996;48.746;9.174;2023-12-07T08:00:19;13.10;;;7.90;;
9914;SDS011;4996;48.746;9.174;2023-12-07T08:02:44;13.07;;;7.50;;
9914;SDS011;4996;48.746;9.174;2023-12-07T08:05:11;12.35;;;7.72;;
9914;SDS011;4996;48.746;9.174;2023-12-07T08:07:36;12.60;;;8.60;;
9914;SDS011;4996;48.746;9.174;2023-12-07T08:10:02;13.67;;;7.80;;
9914;SDS011;4996;48.746;9.174;2023-12-07T08:12:28;15.02;;;7.95;;
9914;SDS011;4996;48.746;9.174;2023-12-07T08:14:54;9.90;;;6.50;;
9914;SDS011;4996;48.746;9.174;2023-12-07T08:17:19;9.23;;;7.20;;
9914;SDS011;4996;48.746;9.174;2023-12-07T08:19:46;11.05;;;6.47;;
9914;SDS011;4996;48.746;9.174;2023-12-07T08:22:12;12.07;;;6.88;;
9914;SDS011;4996;48.746;9.174;2023-12-07T08:24:41;16.63;;;8.50;;
9914;SDS011;4996;48.746;9.174;2023-12-07T08:27:06;11.63;;;7.60;;
9914;SDS011;4996;48.746;9.174;2023-12-07T08:29:32;9.77;;;7.23;;
9914;SDS011;4996;48.746;9.174;2023-12-07T08:31:57;16.83;;;9.60;;
9914;SDS011;4996;48.746;9.174;2023-12-07T08:34:23;14.00;;;7.90;;
9914;SDS011;4996;48.746;9.174;2023-12-07T08:36:49;17.65;;;8.15;;
9914;SDS011;4996;48.746;9.174;2023-12-07T08:39:15;9.67;;;6.47;;
9914;SDS011;4996;48.746;9.174;2023-12-07T08:41:41;14.27;;;8.30;;
9914;SDS011;4996;48.746;9.174;2023-12-07T08:44:06;19.00;;;8.20;;
9914;SDS011;4996;48.746;9.174;2023-12-07T08:46:32;14.97;;;8.20;;
9914;SDS011;4996;48.746;9.174;2023-12-07T08:48:58;14.43;;;9.05;;
9914;SDS011;4996;48.746;9.174;2023-12-07T08:51:24;13.17;;;8.77;;
9914;SDS011;4996;48.746;9.174;2023-12-07T08:53:49;13.83;;;8.90;;
9914;SDS011;4996;48.746;9.174;2023-12-07T08:56:16;11.60;;;7.55;;
9914;SDS011;4996;48.746;9.174;2023-12-07T08:58:42;13.25;;;7.55;;
9914;SDS011;4996;48.746;9.174;2023-12-07T09:01:09;10.38;;;7.05;;
9914;SDS011;4996;48.746;9.174;2023-12-07T09:03:35;11.13;;;8.10;;
9914;SDS011;4996;48.746;9.174;2023-12-07T09:06:02;11.02;;;7.65;;
9914;SDS011;4996;48.746;9.174;2023-12-07T09:08:28;9.20;;;6.37;;
9914;SDS011;4996;48.746;9.174;2023-12-07T09:10:53;12.33;;;7.27;;
9914;SDS011;4996;48.746;9.174;2023-12-07T09:13:19;13.20;;;7.63;;
9914;SDS011;4996;48.746;9.174;2023-12-07T09:15:44;14.63;;;6.80;;
9914;SDS011;4996;48.746;9.174;2023-12-07T09:18:10;12.80;;;7.17;;
9914;SDS011;4996;48.746;9.174;2023-12-07T09:20:36;11.32;;;5.90;;
9914;SDS011;4996;48.746;9.174;2023-12-07T09:23:02;9.07;;;6.90;;
9914;SDS011;4996;48.746;9.174;2023-12-07T09:25:28;13.68;;;6.38;;
9914;SDS011;4996;48.746;9.174;2023-12-07T09:27:55;9.95;;;6.50;;
9914;SDS011;4996;48.746;9.174;2023-12-07T09:30:21;13.15;;;6.78;;
9914;SDS011;4996;48.746;9.174;2023-12-07T09:32:46;11.80;;;6.90;;
9914;SDS011;4996;48.746;9.174;2023-12-07T09:35:12;7.70;;;5.57;;
9914;SDS011;4996;48.746;9.174;2023-12-07T09:37:44;12.10;;;6.20;;
9914;SDS011;4996;48.746;9.174;2023-12-07T09:40:17;9.57;;;5.80;;
9914;SDS011;4996;48.746;9.174;2023-12-07T09:42:45;12.80;;;7.07;;
9914;SDS011;4996;48.746;9.174;2023-12-07T09:45:11;9.95;;;6.15;;
9914;SDS011;4996;48.746;9.174;2023-12-07T09:47:37;7.67;;;5.90;;
9914;SDS011;4996;48.746;9.174;2023-12-07T09:50:04;11.15;;;6.30;;
9914;SDS011;4996;48.746;9.174;2023-12-07T09:52:31;11.05;;;6.28;;
9914;SDS011;4996;48.746;9.174;2023-12-07T09:54:57;8.60;;;7.20;;
9914;SDS011;4996;48.746;9.174;2023-12-07T09:57:24;10.30;;;6.38;;
9914;SDS011;4996;48.746;9.174;2023-12-07T09:59:49;11.10;;;5.97;;
9914;SDS011;4996;48.746;9.174;2023-12-07T10:02:15;10.47;;;7.37;;
9914;SDS011;4996;48.746;9.174;2023-12-07T10:04:41;7.77;;;5.33;;
9914;SDS011;4996;48.746;9.174;2023-12-07T10:07:06;8.30;;;5.47;;
9914;SDS011;4996;48.746;9.174;2023-12-07T10:09:34;6.85;;;4.80;;
9914;SDS011;4996;48.746;9.174;2023-12-07T10:12:04;10.93;;;5.43;;
9914;SDS011;4996;48.746;9.174;2023-12-07T10:14:30;10.93;;;4.85;;
9914;SDS011;4996;48.746;9.174;2023-12-07T10:16:56;6.83;;;5.67;;
9914;SDS011;4996;48.746;9.174;2023-12-07T10:19:22;8.97;;;5.80;;
9914;SDS011;4996;48.746;9.174;2023-12-07T10:21:48;8.20;;;5.23;;
9914;SDS011;4996;48.746;9.174;2023-12-07T10:24:17;8.10;;;5.20;;
9914;SDS011;4996;48.746;9.174;2023-12-07T10:26:44;7.00;;;5.23;;
9914;SDS011;4996;48.746;9.174;2023-12-07T10:29:10;10.53;;;5.27;;
9914;SDS011;4996;48.746;9.174;2023-12-07T10:31:36;6.17;;;4.67;;
9914;SDS011;4996;48.746;9.174;2023-12-07T10:34:02;7.13;;;4.97;;
9914;SDS011;4996;48.746;9.174;2023-12-07T10:36:29;7.27;;;4.27;;
9914;SDS011;4996;48.746;9.174;2023-12-07T10:38:55;6.63;;;4.70;;
9914;SDS011;4996;48.746;9.174;2023-12-07T10:41:21;7.03;;;4.77;;
9914;SDS011;4996;48.746;9.174;2023-12-07T10:43:52;4.93;;;4.43;;
9914;SDS011;4996;48.746;9.174;2023-12-07T10:46:22;6.53;;;5.10;;
9914;SDS011;4996;48.746;9.174;2023-12-07T10:48:48;7.77;;;4.90;;
9914;SDS011;4996;48.746;9.174;2023-12-07T10:51:28;6.10;;;5.27;;
9914;SDS011;4996;48.746;9.174;2023-12-07T10:53:58;6.33;;;4.80;;
9914;SDS011;4996;48.746;9.174;2023-12-07T10:56:44;5.40;;;4.60;;
9914;SDS011;4996;48.746;9.174;2023-12-07T10:59:10;6.30;;;4.80;;
9914;SDS011;4996;48.746;9.174;2023-12-07T11:01:41;4.23;;;3.83;;
9914;SDS011;4996;48.746;9.174;2023-12-07T11:04:11;5.13;;;4.03;;
9914;SDS011;4996;48.746;9.174;2023-12-07T11:06:37;5.10;;;4.50;;
9914;SDS011;4996;48.746;9.174;2023-12-07T11:09:06;4.70;;;4.27;;
9914;SDS011;4996;48.746;9.174;2023-12-07T11:11:42;5.70;;;3.33;;
9914;SDS011;4996;48.746;9.174;2023-12-07T11:14:13;4.27;;;3.30;;
9914;SDS011;4996;48.746;9.174;2023-12-07T11:16:42;4.33;;;3.50;;
9914;SDS011;4996;48.746;9.174;2023-12-07T11:22:07;3.40;;;2.60;;
9914;SDS011;4996;48.746;9.174;2023-12-07T11:24:35;3.97;;;2.53;;
9914;SDS011;4996;48.746;9.174;2023-12-07T11:27:01;5.37;;;2.60;;
9914;SDS011;4996;48.746;9.174;2023-12-07T11:29:30;4.50;;;2.97;;
9914;SDS011;4996;48.746;9.174;2023-12-07T11:32:00;4.57;;;3.07;;
9914;SDS011;4996;48.746;9.174;2023-12-07T11:34:34;3.20;;;2.90;;
9914;SDS011;4996;48.746;9.174;2023-12-07T11:37:08;4.00;;;3.13;;
9914;SDS011;4996;48.746;9.174;2023-12-07T11:39:34;6.73;;;3.20;;
9914;SDS011;4996;48.746;9.174;2023-12-07T11:42:22;5.53;;;2.90;;
9914;SDS011;4996;48.746;9.174;2023-12-07T11:44:47;6.07;;;3.30;;
9914;SDS011;4996;48.746;9.174;2023-12-07T11:47:18;2.53;;;2.20;;
9914;SDS011;4996;48.746;9.174;2023-12-07T11:49:45;9.20;;;3.03;;
9914;SDS011;4996;48.746;9.174;2023-12-07T11:52:15;4.67;;;3.33;;
9914;SDS011;4996;48.746;9.174;2023-12-07T11:54:43;4.23;;;2.77;;
9914;SDS011;4996;48.746;9.174;2023-12-07T11:57:09;3.50;;;2.23;;
9914;SDS011;4996;48.746;9.174;2023-12-07T11:59:35;4.13;;;2.77;;
9914;SDS011;4996;48.746;9.174;2023-12-07T12:02:01;3.53;;;2.20;;
9914;SDS011;4996;48.746;9.174;2023-12-07T12:04:30;6.00;;;2.73;;
9914;SDS011;4996;48.746;9.174;2023-12-07T12:06:56;2.60;;;2.27;;
9914;SDS011;4996;48.746;9.174;2023-12-07T12:09:23;11.50;;;2.70;;
9914;SDS011;4996;48.746;9.174;2023-12-07T12:11:49;3.63;;;2.60;;
9914;SDS011;4996;48.746;9.174;2023-12-07T12:14:15;3.67;;;3.13;;
9914;SDS011;4996;48.746;9.174;2023-12-07T12:16:45;4.67;;;2.87;;
9914;SDS011;4996;48.746;9.174;2023-12-07T12:19:11;3.97;;;2.73;;
9914;SDS011;4996;48.746;9.174;2023-12-07T12:21:39;7.57;;;3.33;;
9914;SDS011;4996;48.746;9.174;2023-12-07T12:24:11;7.07;;;3.13;;
9914;SDS011;4996;48.746;9.174;2023-12-07T12:26:39;4.23;;;3.40;;
9914;SDS011;4996;48.746;9.174;2023-12-07T12:29:06;4.40;;;3.80;;
9914;SDS011;4996;48.746;9.174;2023-12-07T12:31:33;7.63;;;4.80;;
9914;SDS011;4996;48.746;9.174;2023-12-07T12:34:02;4.03;;;3.60;;
9914;SDS011;4996;48.746;9.174;2023-12-07T12:36:30;6.30;;;4.03;;
9914;SDS011;4996;48.746;9.174;2023-12-07T12:38:55;8.90;;;4.47;;
9914;SDS011;4996;48.746;9.174;2023-12-07T12:41:22;4.87;;;4.43;;
9914;SDS011;4996;48.746;9.174;2023-12-07T12:43:48;6.23;;;3.90;;
9914;SDS011;4996;48.746;9.174;2023-12-07T12:46:15;5.90;;;3.50;;
9914;SDS011;4996;48.746;9.174;2023-12-07T12:48:53;5.80;;;4.03;;
9914;SDS011;4996;48.746;9.174;2023-12-07T12:51:24;4.57;;;4.00;;
9914;SDS011;4996;48.746;9.174;2023-12-07T12:53:54;6.70;;;4.37;;
9914;SDS011;4996;48.746;9.174;2023-12-07T12:56:21;9.03;;;5.10;;
9914;SDS011;4996;48.746;9.174;2023-12-07T12:58:47;8.17;;;4.00;;
9914;SDS011;4996;48.746;9.174;2023-12-07T13:01:16;6.43;;;4.00;;
9914;SDS011;4996;48.746;9.174;2023-12-07T13:03:43;7.40;;;5.27;;
9914;SDS011;4996;48.746;9.174;2023-12-07T13:06:15;5.67;;;4.50;;
9914;SDS011;4996;48.746;9.174;2023-12-07T13:08:45;9.47;;;4.70;;
9914;SDS011;4996;48.746;9.174;2023-12-07T13:11:15;6.83;;;4.73;;
9914;SDS011;4996;48.746;9.174;2023-12-07T13:13:41;6.17;;;3.97;;
9914;SDS011;4996;48.746;9.174;2023-12-07T13:16:07;8.40;;;4.23;;
9914;SDS011;4996;48.746;9.174;2023-12-07T13:18:33;7.53;;;4.63;;
9914;SDS011;4996;48.746;9.174;2023-12-07T13:20:58;6.20;;;3.60;;
9914;SDS011;4996;48.746;9.174;2023-12-07T13:23:24;4.80;;;3.43;;
9914;SDS011;4996;48.746;9.174;2023-12-07T13:25:50;6.88;;;4.22;;
9914;SDS011;4996;48.746;9.174;2023-12-07T13:28:16;5.63;;;4.10;;
9914;SDS011;4996;48.746;9.174;2023-12-07T13:30:41;6.80;;;4.87;;
9914;SDS011;4996;48.746;9.174;2023-12-07T13:33:07;5.30;;;4.13;;
9914;SDS011;4996;48.746;9.174;2023-12-07T13:35:34;5.30;;;3.95;;
9914;SDS011;4996;48.746;9.174;2023-12-07T13:37:59;5.10;;;3.57;;
9914;SDS011;4996;48.746;9.174;2023-12-07T13:40:25;6.07;;;3.80;;
9914;SDS011;4996;48.746;9.174;2023-12-07T13:42:52;6.43;;;3.72;;
9914;SDS011;4996;48.746;9.174;2023-12-07T13:45:17;4.57;;;3.30;;
9914;SDS011;4996;48.746;9.174;2023-12-07T13:47:43;4.83;;;3.30;;
9914;SDS011;4996;48.746;9.174;2023-12-07T13:50:09;4.67;;;2.93;;
9914;SDS011;4996;48.746;9.174;2023-12-07T13:52:35;3.25;;;2.65;;
9914;SDS011;4996;48.746;9.174;2023-12-07T13:55:01;4.67;;;3.00;;
9914;SDS011;4996;48.746;9.174;2023-12-07T13:57:27;4.13;;;3.73;;
9914;SDS011;4996;48.746;9.174;2023-12-07T13:59:53;3.33;;;2.27;;
9914;SDS011;4996;48.746;9.174;2023-12-07T14:02:19;3.80;;;2.60;;
9914;SDS011;4996;48.746;9.174;2023-12-07T14:04:45;3.13;;;2.20;;
9914;SDS011;4996;48.746;9.174;2023-12-07T14:07:15;3.00;;;1.53;;
9914;SDS011;4996;48.746;9.174;2023-12-07T14:09:43;4.47;;;2.20;;
9914;SDS011;4996;48.746;9.174;2023-12-07T14:12:10;2.20;;;1.87;;
9914;SDS011;4996;48.746;9.174;2023-12-07T14:14:38;2.30;;;1.70;;
9914;SDS011;4996;48.746;9.174;2023-12-07T14:17:04;2.43;;;1.60;;
9914;SDS011;4996;48.746;9.174;2023-12-07T14:19:30;2.80;;;1.50;;
9914;SDS011;4996;48.746;9.174;2023-12-07T14:21:56;1.93;;;1.27;;
9914;SDS011;4996;48.746;9.174;2023-12-07T14:24:22;1.73;;;1.60;;
9914;SDS011;4996;48.746;9.174;2023-12-07T14:26:48;4.00;;;1.70;;
9914;SDS011;4996;48.746;9.174;2023-12-07T14:29:14;1.93;;;1.30;;
9914;SDS011;4996;48.746;9.174;2023-12-07T14:31:42;5.03;;;1.60;;
9914;SDS011;4996;48.746;9.174;2023-12-07T14:34:13;2.25;;;1.55;;
9914;SDS011;4996;48.746;9.174;2023-12-07T14:36:39;4.15;;;1.80;;
9914;SDS011;4996;48.746;9.174;2023-12-07T14:39:06;4.17;;;1.60;;
9914;SDS011;4996;48.746;9.174;2023-12-07T14:41:33;5.20;;;2.10;;
9914;SDS011;4996;48.746;9.174;2023-12-07T14:43:59;4.57;;;1.90;;
9914;SDS011;4996;48.746;9.174;2023-12-07T14:46:25;3.77;;;1.90;;
9914;SDS011;4996;48.746;9.174;2023-12-07T14:48:50;3.43;;;1.70;;
9914;SDS011;4996;48.746;9.174;2023-12-07T14:51:19;4.40;;;1.97;;
9914;SDS011;4996;48.746;9.174;2023-12-07T14:53:47;3.95;;;1.75;;
9914;SDS011;4996;48.746;9.174;2023-12-07T14:56:13;2.80;;;1.40;;
9914;SDS011;4996;48.746;9.174;2023-12-07T14:58:39;1.50;;;1.40;;
9914;SDS011;4996;48.746;9.174;2023-12-07T15:01:07;4.80;;;1.90;;
9914;SDS011;4996;48.746;9.174;2023-12-07T15:03:33;3.58;;;1.92;;
9914;SDS011;4996;48.746;9.174;2023-12-07T15:05:59;2.90;;;1.67;;
9914;SDS011;4996;48.746;9.174;2023-12-07T15:08:25;2.20;;;1.27;;
9914;SDS011;4996;48.746;9.174;2023-12-07T15:10:50;4.60;;;1.93;;
9914;SDS011;4996;48.746;9.174;2023-12-07T15:13:17;2.72;;;1.73;;
9914;SDS011;4996;48.746;9.174;2023-12-07T15:15:43;3.42;;;2.35;;
9914;SDS011;4996;48.746;9.174;2023-12-07T15:18:09;2.93;;;2.10;;